sensor_id;sensor_type;location;lat;lon;timestamp;temperature;humidity
38118;DHT22;23928;47.562;7.508;2023-05-08T00:00:01;15.00;99.90
38118;DHT22;23928;47.562;7.508;2023-05-08T00:02:30;15.00;99.90
38118;DHT22;23928;47.562;7.508;2023-05-08T00:04:56;15.00;99.90
38118;DHT22;23928;47.562;7.508;2023-05-08T00:07:21;14.90;99.90
38118;DHT22;23928;47.562;7.508;2023-05-08T00:09:47;14.80;99.90
38118;DHT22;23928;47.562;7.508;2023-05-08T00:12:13;14.90;99.90
38118;DHT22;23928;47.562;7.508;2023-05-08T00:14:38;15.00;99.90
38118;DHT22;23928;47.562;7.508;2023-05-08T00:17:04;15.00;99.90
38118;DHT22;23928;47.562;7.508;2023-05-08T00:19:29;14.90;99.90
38118;DHT22;23928;47.562;7.508;2023-05-08T00:21:55;14.90;99.90
38118;DHT22;23928;47.562;7.508;2023-05-08T00:24:21;14.90;99.90
38118;DHT22;23928;47.562;7.508;2023-05-08T00:26:46;14.90;99.90
38118;DHT22;23928;47.562;7.508;2023-05-08T00:29:12;14.90;99.90
38118;DHT22;23928;47.562;7.508;2023-05-08T00:31:37;14.90;99.90
38118;DHT22;23928;47.562;7.508;2023-05-08T00:34:03;14.90;99.90
38118;DHT22;23928;47.562;7.508;2023-05-08T00:36:29;14.80;99.90
38118;DHT22;23928;47.562;7.508;2023-05-08T00:38:54;14.90;99.90
38118;DHT22;23928;47.562;7.508;2023-05-08T00:41:20;15.00;99.90
38118;DHT22;23928;47.562;7.508;2023-05-08T00:43:45;15.00;99.90
38118;DHT22;23928;47.562;7.508;2023-05-08T00:46:12;14.90;99.90
38118;DHT22;23928;47.562;7.508;2023-05-08T00:48:38;14.90;99.90
38118;DHT22;23928;47.562;7.508;2023-05-08T00:51:05;14.90;99.90
38118;DHT22;23928;47.562;7.508;2023-05-08T00:53:35;14.90;99.90
38118;DHT22;23928;47.562;7.508;2023-05-08T00:56:01;15.10;99.90
38118;DHT22;23928;47.562;7.508;2023-05-08T00:58:28;15.00;99.90
38118;DHT22;23928;47.562;7.508;2023-05-08T01:00:55;15.00;99.90
38118;DHT22;23928;47.562;7.508;2023-05-08T01:03:22;15.00;99.90
38118;DHT22;23928;47.562;7.508;2023-05-08T01:05:48;15.20;99.90
38118;DHT22;23928;47.562;7.508;2023-05-08T01:08:13;15.00;99.90
38118;DHT22;23928;47.562;7.508;2023-05-08T01:22:15;15.10;99.90
38118;DHT22;23928;47.562;7.508;2023-05-08T01:33:01;15.00;99.90
38118;DHT22;23928;47.562;7.508;2023-05-08T01:35:37;14.90;99.90
38118;DHT22;23928;47.562;7.508;2023-05-08T01:38:24;14.90;99.90
38118;DHT22;23928;47.562;7.508;2023-05-08T01:41:11;15.00;99.90
38118;DHT22;23928;47.562;7.508;2023-05-08T01:43:54;15.00;99.90
38118;DHT22;23928;47.562;7.508;2023-05-08T01:46:26;15.00;99.90
38118;DHT22;23928;47.562;7.508;2023-05-08T01:48:58;15.00;99.90
38118;DHT22;23928;47.562;7.508;2023-05-08T01:51:27;15.00;99.90
38118;DHT22;23928;47.562;7.508;2023-05-08T01:53:58;14.90;99.90
38118;DHT22;23928;47.562;7.508;2023-05-08T01:56:27;14.80;99.90
38118;DHT22;23928;47.562;7.508;2023-05-08T01:58:56;14.80;99.90
38118;DHT22;23928;47.562;7.508;2023-05-08T02:01:23;14.80;99.90
38118;DHT22;23928;47.562;7.508;2023-05-08T02:03:51;14.80;99.90
38118;DHT22;23928;47.562;7.508;2023-05-08T02:06:20;14.90;99.90
38118;DHT22;23928;47.562;7.508;2023-05-08T02:08:48;14.80;99.90
38118;DHT22;23928;47.562;7.508;2023-05-08T02:11:15;14.80;99.90
38118;DHT22;23928;47.562;7.508;2023-05-08T02:13:43;14.80;99.90
38118;DHT22;23928;47.562;7.508;2023-05-08T02:16:10;14.90;99.90
38118;DHT22;23928;47.562;7.508;2023-05-08T02:18:37;14.90;99.90
38118;DHT22;23928;47.562;7.508;2023-05-08T02:21:04;14.90;99.90
38118;DHT22;23928;47.562;7.508;2023-05-08T02:23:32;14.90;99.90
38118;DHT22;23928;47.562;7.508;2023-05-08T02:25:59;14.90;99.90
38118;DHT22;23928;47.562;7.508;2023-05-08T02:28:27;14.80;99.90
38118;DHT22;23928;47.562;7.508;2023-05-08T02:30:54;14.80;99.90
38118;DHT22;23928;47.562;7.508;2023-05-08T02:33:21;14.80;99.90
38118;DHT22;23928;47.562;7.508;2023-05-08T02:35:49;14.80;99.90
38118;DHT22;23928;47.562;7.508;2023-05-08T02:38:16;14.90;99.90
38118;DHT22;23928;47.562;7.508;2023-05-08T02:40:50;14.90;99.90
38118;DHT22;23928;47.562;7.508;2023-05-08T02:43:17;14.90;99.90
38118;DHT22;23928;47.562;7.508;2023-05-08T02:45:47;14.80;99.90
38118;DHT22;23928;47.562;7.508;2023-05-08T02:48:32;14.80;99.90
38118;DHT22;23928;47.562;7.508;2023-05-08T02:51:08;14.80;99.90
38118;DHT22;23928;47.562;7.508;2023-05-08T02:53:39;14.80;99.90
38118;DHT22;23928;47.562;7.508;2023-05-08T02:56:19;14.90;99.90
38118;DHT22;23928;47.562;7.508;2023-05-08T02:58:57;14.90;99.90
38118;DHT22;23928;47.562;7.508;2023-05-08T03:01:28;15.00;99.90
38118;DHT22;23928;47.562;7.508;2023-05-08T03:04:04;14.90;99.90
38118;DHT22;23928;47.562;7.508;2023-05-08T03:06:39;14.80;99.90
38118;DHT22;23928;47.562;7.508;2023-05-08T03:09:06;14.80;99.90
38118;DHT22;23928;47.562;7.508;2023-05-08T03:11:39;14.80;99.90
38118;DHT22;23928;47.562;7.508;2023-05-08T03:14:10;14.90;99.90
38118;DHT22;23928;47.562;7.508;2023-05-08T03:16:38;15.00;99.90
38118;DHT22;23928;47.562;7.508;2023-05-08T03:19:07;14.80;99.90
38118;DHT22;23928;47.562;7.508;2023-05-08T03:21:35;14.80;99.90
38118;DHT22;23928;47.562;7.508;2023-05-08T03:24:03;14.90;99.90
38118;DHT22;23928;47.562;7.508;2023-05-08T03:26:30;14.80;99.90
38118;DHT22;23928;47.562;7.508;2023-05-08T03:28:56;14.80;99.90
38118;DHT22;23928;47.562;7.508;2023-05-08T03:31:23;14.90;99.90
38118;DHT22;23928;47.562;7.508;2023-05-08T03:33:52;14.80;99.90
38118;DHT22;23928;47.562;7.508;2023-05-08T03:36:19;14.70;99.90
38118;DHT22;23928;47.562;7.508;2023-05-08T03:38:45;14.70;99.90
38118;DHT22;23928;47.562;7.508;2023-05-08T03:41:11;14.70;99.90
38118;DHT22;23928;47.562;7.508;2023-05-08T03:43:37;14.90;99.90
38118;DHT22;23928;47.562;7.508;2023-05-08T03:46:04;14.90;99.90
38118;DHT22;23928;47.562;7.508;2023-05-08T03:48:32;14.90;99.90
38118;DHT22;23928;47.562;7.508;2023-05-08T03:51:00;14.90;99.90
38118;DHT22;23928;47.562;7.508;2023-05-08T03:53:31;14.90;99.90
38118;DHT22;23928;47.562;7.508;2023-05-08T03:55:58;14.80;99.90
38118;DHT22;23928;47.562;7.508;2023-05-08T03:58:46;14.70;99.90
38118;DHT22;23928;47.562;7.508;2023-05-08T04:01:37;14.80;99.90
38118;DHT22;23928;47.562;7.508;2023-05-08T04:06:48;14.90;99.90
38118;DHT22;23928;47.562;7.508;2023-05-08T04:09:35;14.90;99.90
38118;DHT22;23928;47.562;7.508;2023-05-08T04:14:46;14.90;99.90
38118;DHT22;23928;47.562;7.508;2023-05-08T04:17:16;14.80;99.90
38118;DHT22;23928;47.562;7.508;2023-05-08T04:19:45;14.80;99.90
38118;DHT22;23928;47.562;7.508;2023-05-08T04:22:11;14.80;99.90
38118;DHT22;23928;47.562;7.508;2023-05-08T04:24:42;14.70;99.90
38118;DHT22;23928;47.562;7.508;2023-05-08T04:27:09;14.80;99.90
38118;DHT22;23928;47.562;7.508;2023-05-08T04:29:35;14.80;99.90
38118;DHT22;23928;47.562;7.508;2023-05-08T04:32:04;14.80;99.90
38118;DHT22;23928;47.562;7.508;2023-05-08T04:34:30;14.90;99.90
38118;DHT22;23928;47.562;7.508;2023-05-08T04:36:56;15.00;99.90
38118;DHT22;23928;47.562;7.508;2023-05-08T04:39:22;15.00;99.90
38118;DHT22;23928;47.562;7.508;2023-05-08T04:41:47;14.90;99.90
38118;DHT22;23928;47.562;7.508;2023-05-08T04:44:15;14.90;99.90
38118;DHT22;23928;47.562;7.508;2023-05-08T04:46:41;15.00;99.90
38118;DHT22;23928;47.562;7.508;2023-05-08T04:49:07;15.00;99.90
38118;DHT22;23928;47.562;7.508;2023-05-08T04:51:33;14.90;99.90
38118;DHT22;23928;47.562;7.508;2023-05-08T04:53:59;14.90;99.90
38118;DHT22;23928;47.562;7.508;2023-05-08T04:56:24;14.90;99.90
38118;DHT22;23928;47.562;7.508;2023-05-08T04:58:51;15.00;99.90
38118;DHT22;23928;47.562;7.508;2023-05-08T05:01:16;15.00;99.90
38118;DHT22;23928;47.562;7.508;2023-05-08T05:03:42;15.10;99.90
38118;DHT22;23928;47.562;7.508;2023-05-08T05:06:07;15.10;99.90
38118;DHT22;23928;47.562;7.508;2023-05-08T05:08:33;15.10;99.90
38118;DHT22;23928;47.562;7.508;2023-05-08T05:10:58;15.20;99.90
38118;DHT22;23928;47.562;7.508;2023-05-08T05:13:24;15.30;99.90
38118;DHT22;23928;47.562;7.508;2023-05-08T05:15:50;15.00;99.90
38118;DHT22;23928;47.562;7.508;2023-05-08T05:18:19;15.10;99.90
38118;DHT22;23928;47.562;7.508;2023-05-08T05:20:44;15.00;99.90
38118;DHT22;23928;47.562;7.508;2023-05-08T05:23:10;15.10;99.90
38118;DHT22;23928;47.562;7.508;2023-05-08T05:25:36;15.20;99.90
38118;DHT22;23928;47.562;7.508;2023-05-08T05:28:02;15.20;99.90
38118;DHT22;23928;47.562;7.508;2023-05-08T05:30:27;15.10;99.90
38118;DHT22;23928;47.562;7.508;2023-05-08T05:32:53;15.20;99.90
38118;DHT22;23928;47.562;7.508;2023-05-08T05:35:19;15.30;99.90
38118;DHT22;23928;47.562;7.508;2023-05-08T05:37:44;15.20;99.90
38118;DHT22;23928;47.562;7.508;2023-05-08T05:40:10;15.00;99.90
38118;DHT22;23928;47.562;7.508;2023-05-08T05:42:37;15.20;99.90
38118;DHT22;23928;47.562;7.508;2023-05-08T05:45:03;15.30;99.90
38118;DHT22;23928;47.562;7.508;2023-05-08T05:47:30;15.30;99.90
38118;DHT22;23928;47.562;7.508;2023-05-08T05:49:56;15.20;99.90
38118;DHT22;23928;47.562;7.508;2023-05-08T05:52:21;15.30;99.90
38118;DHT22;23928;47.562;7.508;2023-05-08T05:54:47;15.30;99.90
38118;DHT22;23928;47.562;7.508;2023-05-08T05:57:13;15.40;99.90
38118;DHT22;23928;47.562;7.508;2023-05-08T05:59:39;15.40;99.90
38118;DHT22;23928;47.562;7.508;2023-05-08T06:02:06;15.40;99.90
38118;DHT22;23928;47.562;7.508;2023-05-08T06:04:32;15.40;99.90
38118;DHT22;23928;47.562;7.508;2023-05-08T06:06:58;15.40;99.90
38118;DHT22;23928;47.562;7.508;2023-05-08T06:09:23;15.50;99.90
38118;DHT22;23928;47.562;7.508;2023-05-08T06:11:49;15.50;99.90
38118;DHT22;23928;47.562;7.508;2023-05-08T06:14:15;15.60;99.90
38118;DHT22;23928;47.562;7.508;2023-05-08T06:16:41;15.60;99.90
38118;DHT22;23928;47.562;7.508;2023-05-08T06:19:06;15.60;99.90
38118;DHT22;23928;47.562;7.508;2023-05-08T06:21:32;15.70;99.90
38118;DHT22;23928;47.562;7.508;2023-05-08T06:23:58;15.70;99.90
38118;DHT22;23928;47.562;7.508;2023-05-08T06:26:24;15.70;99.90
38118;DHT22;23928;47.562;7.508;2023-05-08T06:28:50;15.70;99.90
38118;DHT22;23928;47.562;7.508;2023-05-08T06:31:16;15.70;99.90
38118;DHT22;23928;47.562;7.508;2023-05-08T06:33:41;15.70;99.90
38118;DHT22;23928;47.562;7.508;2023-05-08T06:36:07;15.70;99.90
38118;DHT22;23928;47.562;7.508;2023-05-08T06:38:33;15.80;99.90
38118;DHT22;23928;47.562;7.508;2023-05-08T06:40:58;15.90;99.90
38118;DHT22;23928;47.562;7.508;2023-05-08T06:43:24;15.90;99.90
38118;DHT22;23928;47.562;7.508;2023-05-08T06:45:49;15.80;99.90
38118;DHT22;23928;47.562;7.508;2023-05-08T06:48:17;15.90;99.90
38118;DHT22;23928;47.562;7.508;2023-05-08T06:50:42;15.90;99.90
38118;DHT22;23928;47.562;7.508;2023-05-08T06:53:08;15.90;99.90
38118;DHT22;23928;47.562;7.508;2023-05-08T06:55:34;15.90;99.90
38118;DHT22;23928;47.562;7.508;2023-05-08T06:58:00;15.80;99.90
38118;DHT22;23928;47.562;7.508;2023-05-08T07:00:25;15.90;99.90
38118;DHT22;23928;47.562;7.508;2023-05-08T07:02:51;16.00;99.90
38118;DHT22;23928;47.562;7.508;2023-05-08T07:05:17;16.20;99.90
38118;DHT22;23928;47.562;7.508;2023-05-08T07:07:44;16.30;99.90
38118;DHT22;23928;47.562;7.508;2023-05-08T07:10:10;16.40;99.90
38118;DHT22;23928;47.562;7.508;2023-05-08T07:12:35;16.50;99.90
38118;DHT22;23928;47.562;7.508;2023-05-08T07:15:01;16.70;99.90
38118;DHT22;23928;47.562;7.508;2023-05-08T07:17:27;16.60;99.90
38118;DHT22;23928;47.562;7.508;2023-05-08T07:19:52;16.50;99.90
38118;DHT22;23928;47.562;7.508;2023-05-08T07:22:18;16.70;99.90
38118;DHT22;23928;47.562;7.508;2023-05-08T07:24:43;16.60;99.90
38118;DHT22;23928;47.562;7.508;2023-05-08T07:27:09;16.30;99.90
38118;DHT22;23928;47.562;7.508;2023-05-08T07:29:35;16.30;99.90
38118;DHT22;23928;47.562;7.508;2023-05-08T07:32:01;16.40;99.90
38118;DHT22;23928;47.562;7.508;2023-05-08T07:34:26;16.30;99.90
38118;DHT22;23928;47.562;7.508;2023-05-08T07:36:52;16.50;99.90
38118;DHT22;23928;47.562;7.508;2023-05-08T07:39:18;16.70;99.90
38118;DHT22;23928;47.562;7.508;2023-05-08T07:41:43;16.60;99.90
38118;DHT22;23928;47.562;7.508;2023-05-08T07:44:10;16.40;99.90
38118;DHT22;23928;47.562;7.508;2023-05-08T07:46:35;16.40;99.90
38118;DHT22;23928;47.562;7.508;2023-05-08T07:49:02;16.50;99.90
38118;DHT22;23928;47.562;7.508;2023-05-08T07:51:28;16.40;99.90
38118;DHT22;23928;47.562;7.508;2023-05-08T07:53:53;16.50;99.90
38118;DHT22;23928;47.562;7.508;2023-05-08T07:56:20;16.50;99.90
38118;DHT22;23928;47.562;7.508;2023-05-08T07:58:47;16.50;99.90
38118;DHT22;23928;47.562;7.508;2023-05-08T08:01:12;16.30;99.90
38118;DHT22;23928;47.562;7.508;2023-05-08T08:03:38;16.30;99.90
38118;DHT22;23928;47.562;7.508;2023-05-08T08:06:04;16.50;99.90
38118;DHT22;23928;47.562;7.508;2023-05-08T08:08:29;16.70;99.90
38118;DHT22;23928;47.562;7.508;2023-05-08T08:10:55;16.80;99.90
38118;DHT22;23928;47.562;7.508;2023-05-08T08:13:21;16.90;99.90
38118;DHT22;23928;47.562;7.508;2023-05-08T08:15:46;16.60;99.90
38118;DHT22;23928;47.562;7.508;2023-05-08T08:18:12;16.50;99.90
38118;DHT22;23928;47.562;7.508;2023-05-08T08:20:38;16.40;99.90
38118;DHT22;23928;47.562;7.508;2023-05-08T08:23:04;16.80;99.90
38118;DHT22;23928;47.562;7.508;2023-05-08T08:25:30;17.10;99.90
38118;DHT22;23928;47.562;7.508;2023-05-08T08:27:55;17.00;99.90
38118;DHT22;23928;47.562;7.508;2023-05-08T08:30:22;17.20;99.90
38118;DHT22;23928;47.562;7.508;2023-05-08T08:32:48;17.10;99.90
38118;DHT22;23928;47.562;7.508;2023-05-08T08:35:13;17.20;99.90
38118;DHT22;23928;47.562;7.508;2023-05-08T08:37:39;17.20;99.90
38118;DHT22;23928;47.562;7.508;2023-05-08T08:40:05;17.50;99.90
38118;DHT22;23928;47.562;7.508;2023-05-08T08:42:31;17.60;99.90
38118;DHT22;23928;47.562;7.508;2023-05-08T08:44:57;17.50;99.90
38118;DHT22;23928;47.562;7.508;2023-05-08T08:47:27;17.30;99.90
38118;DHT22;23928;47.562;7.508;2023-05-08T08:49:54;17.40;99.90
38118;DHT22;23928;47.562;7.508;2023-05-08T08:55:25;17.50;99.90
38118;DHT22;23928;47.562;7.508;2023-05-08T09:00:36;17.50;99.90
38118;DHT22;23928;47.562;7.508;2023-05-08T09:03:04;17.80;99.90
38118;DHT22;23928;47.562;7.508;2023-05-08T09:05:30;17.50;99.90
38118;DHT22;23928;47.562;7.508;2023-05-08T09:07:57;17.70;99.90
38118;DHT22;23928;47.562;7.508;2023-05-08T09:10:24;17.80;99.90
38118;DHT22;23928;47.562;7.508;2023-05-08T09:12:50;18.00;99.90
38118;DHT22;23928;47.562;7.508;2023-05-08T09:15:15;18.40;99.90
38118;DHT22;23928;47.562;7.508;2023-05-08T09:17:41;18.70;99.90
38118;DHT22;23928;47.562;7.508;2023-05-08T09:20:08;18.90;99.90
38118;DHT22;23928;47.562;7.508;2023-05-08T09:22:37;19.00;99.90
38118;DHT22;23928;47.562;7.508;2023-05-08T09:25:03;19.10;99.90
38118;DHT22;23928;47.562;7.508;2023-05-08T09:27:30;19.00;99.90
38118;DHT22;23928;47.562;7.508;2023-05-08T09:32:32;18.90;99.90
38118;DHT22;23928;47.562;7.508;2023-05-08T09:34:59;19.00;99.90
38118;DHT22;23928;47.562;7.508;2023-05-08T09:37:25;18.90;99.90
38118;DHT22;23928;47.562;7.508;2023-05-08T09:39:51;18.60;99.90
38118;DHT22;23928;47.562;7.508;2023-05-08T09:42:17;18.80;99.90
38118;DHT22;23928;47.562;7.508;2023-05-08T09:47:21;18.70;99.90
38118;DHT22;23928;47.562;7.508;2023-05-08T09:50:00;18.80;99.90
38118;DHT22;23928;47.562;7.508;2023-05-08T09:52:28;18.80;99.90
38118;DHT22;23928;47.562;7.508;2023-05-08T09:55:01;18.80;99.90
38118;DHT22;23928;47.562;7.508;2023-05-08T09:57:28;18.70;99.90
38118;DHT22;23928;47.562;7.508;2023-05-08T10:00:06;18.50;99.90
38118;DHT22;23928;47.562;7.508;2023-05-08T10:02:34;18.60;99.90
38118;DHT22;23928;47.562;7.508;2023-05-08T10:05:00;18.50;99.90
38118;DHT22;23928;47.562;7.508;2023-05-08T10:07:30;18.00;99.90
38118;DHT22;23928;47.562;7.508;2023-05-08T10:10:00;17.70;99.90
38118;DHT22;23928;47.562;7.508;2023-05-08T10:12:27;17.40;99.90
38118;DHT22;23928;47.562;7.508;2023-05-08T10:14:53;17.30;99.90
38118;DHT22;23928;47.562;7.508;2023-05-08T10:17:24;17.10;99.90
38118;DHT22;23928;47.562;7.508;2023-05-08T10:19:57;16.70;99.90
38118;DHT22;23928;47.562;7.508;2023-05-08T10:22:24;16.70;99.90
38118;DHT22;23928;47.562;7.508;2023-05-08T10:24:55;16.40;99.90
38118;DHT22;23928;47.562;7.508;2023-05-08T10:27:34;16.50;99.90
38118;DHT22;23928;47.562;7.508;2023-05-08T10:30:03;16.30;99.90
38118;DHT22;23928;47.562;7.508;2023-05-08T10:32:42;16.00;99.90
38118;DHT22;23928;47.562;7.508;2023-05-08T10:35:09;16.00;99.90
38118;DHT22;23928;47.562;7.508;2023-05-08T10:37:36;16.00;99.90
38118;DHT22;23928;47.562;7.508;2023-05-08T10:40:04;16.00;99.90
38118;DHT22;23928;47.562;7.508;2023-05-08T10:42:31;16.10;99.90
38118;DHT22;23928;47.562;7.508;2023-05-08T10:44:58;16.40;99.90
38118;DHT22;23928;47.562;7.508;2023-05-08T10:50:36;16.40;99.90
38118;DHT22;23928;47.562;7.508;2023-05-08T10:55:41;16.30;99.90
38118;DHT22;23928;47.562;7.508;2023-05-08T11:03:22;16.90;99.90
38118;DHT22;23928;47.562;7.508;2023-05-08T11:05:51;17.10;99.90
38118;DHT22;23928;47.562;7.508;2023-05-08T11:08:19;17.20;99.90
38118;DHT22;23928;47.562;7.508;2023-05-08T11:10:51;17.40;99.90
38118;DHT22;23928;47.562;7.508;2023-05-08T11:13:34;17.70;99.90
38118;DHT22;23928;47.562;7.508;2023-05-08T11:16:00;18.10;99.90
38118;DHT22;23928;47.562;7.508;2023-05-08T11:18:27;18.10;99.90
38118;DHT22;23928;47.562;7.508;2023-05-08T11:21:03;18.10;99.90
38118;DHT22;23928;47.562;7.508;2023-05-08T11:23:31;18.10;99.90
38118;DHT22;23928;47.562;7.508;2023-05-08T11:25:59;18.30;99.90
38118;DHT22;23928;47.562;7.508;2023-05-08T11:28:32;18.40;99.90
38118;DHT22;23928;47.562;7.508;2023-05-08T11:31:05;18.80;99.90
38118;DHT22;23928;47.562;7.508;2023-05-08T11:33:32;18.90;99.90
38118;DHT22;23928;47.562;7.508;2023-05-08T11:36:17;18.60;99.90
38118;DHT22;23928;47.562;7.508;2023-05-08T11:39:05;18.50;99.90
38118;DHT22;23928;47.562;7.508;2023-05-08T11:41:37;18.70;99.90
38118;DHT22;23928;47.562;7.508;2023-05-08T11:46:41;19.30;99.90
38118;DHT22;23928;47.562;7.508;2023-05-08T11:49:14;18.60;99.90
38118;DHT22;23928;47.562;7.508;2023-05-08T11:51:48;18.50;99.90
38118;DHT22;23928;47.562;7.508;2023-05-08T11:54:16;18.70;99.90
38118;DHT22;23928;47.562;7.508;2023-05-08T11:56:44;18.40;99.90
38118;DHT22;23928;47.562;7.508;2023-05-08T11:59:09;18.30;99.90
38118;DHT22;23928;47.562;7.508;2023-05-08T12:01:35;18.50;99.90
38118;DHT22;23928;47.562;7.508;2023-05-08T12:04:06;18.10;99.90
38118;DHT22;23928;47.562;7.508;2023-05-08T12:06:36;18.10;99.90
38118;DHT22;23928;47.562;7.508;2023-05-08T12:09:08;17.70;99.90
38118;DHT22;23928;47.562;7.508;2023-05-08T12:11:34;18.00;99.90
38118;DHT22;23928;47.562;7.508;2023-05-08T12:14:00;17.70;99.90
38118;DHT22;23928;47.562;7.508;2023-05-08T12:16:25;18.00;99.90
38118;DHT22;23928;47.562;7.508;2023-05-08T12:18:52;17.80;99.90
38118;DHT22;23928;47.562;7.508;2023-05-08T12:21:18;17.50;99.90
38118;DHT22;23928;47.562;7.508;2023-05-08T12:23:44;17.40;99.90
38118;DHT22;23928;47.562;7.508;2023-05-08T12:26:09;17.60;99.90
38118;DHT22;23928;47.562;7.508;2023-05-08T12:28:37;17.50;99.90
38118;DHT22;23928;47.562;7.508;2023-05-08T12:31:04;17.60;99.90
38118;DHT22;23928;47.562;7.508;2023-05-08T12:33:29;17.50;99.90
38118;DHT22;23928;47.562;7.508;2023-05-08T12:35:56;17.50;99.90
38118;DHT22;23928;47.562;7.508;2023-05-08T12:38:28;17.20;99.90
38118;DHT22;23928;47.562;7.508;2023-05-08T12:40:54;17.40;99.90
38118;DHT22;23928;47.562;7.508;2023-05-08T12:43:20;17.60;99.90
38118;DHT22;23928;47.562;7.508;2023-05-08T12:45:50;17.60;99.90
38118;DHT22;23928;47.562;7.508;2023-05-08T12:48:19;17.70;99.90
38118;DHT22;23928;47.562;7.508;2023-05-08T12:50:45;17.80;99.90
38118;DHT22;23928;47.562;7.508;2023-05-08T12:53:16;17.70;99.90
38118;DHT22;23928;47.562;7.508;2023-05-08T12:55:53;17.80;99.90
38118;DHT22;23928;47.562;7.508;2023-05-08T12:58:24;18.00;99.90
38118;DHT22;23928;47.562;7.508;2023-05-08T13:00:51;18.00;99.90
38118;DHT22;23928;47.562;7.508;2023-05-08T13:03:26;18.00;99.90
38118;DHT22;23928;47.562;7.508;2023-05-08T13:05:53;17.90;99.90
38118;DHT22;23928;47.562;7.508;2023-05-08T13:08:27;17.90;99.90
38118;DHT22;23928;47.562;7.508;2023-05-08T13:10:55;18.00;99.90
38118;DHT22;23928;47.562;7.508;2023-05-08T13:13:26;18.00;99.90
38118;DHT22;23928;47.562;7.508;2023-05-08T13:15:53;18.10;99.90
38118;DHT22;23928;47.562;7.508;2023-05-08T13:18:20;18.10;99.90
38118;DHT22;23928;47.562;7.508;2023-05-08T13:20:46;18.20;99.90
38118;DHT22;23928;47.562;7.508;2023-05-08T13:23:12;18.40;99.90
38118;DHT22;23928;47.562;7.508;2023-05-08T13:25:38;18.50;99.90
38118;DHT22;23928;47.562;7.508;2023-05-08T13:28:06;18.40;99.90
38118;DHT22;23928;47.562;7.508;2023-05-08T13:30:32;18.50;99.90
38118;DHT22;23928;47.562;7.508;2023-05-08T13:32:58;18.60;99.90
38118;DHT22;23928;47.562;7.508;2023-05-08T13:35:24;18.70;99.90
38118;DHT22;23928;47.562;7.508;2023-05-08T13:37:50;18.80;99.90
38118;DHT22;23928;47.562;7.508;2023-05-08T13:40:16;18.90;99.90
38118;DHT22;23928;47.562;7.508;2023-05-08T13:42:42;19.00;99.90
38118;DHT22;23928;47.562;7.508;2023-05-08T13:45:09;19.10;99.90
38118;DHT22;23928;47.562;7.508;2023-05-08T13:47:35;18.90;99.90
38118;DHT22;23928;47.562;7.508;2023-05-08T13:50:01;19.20;99.90
38118;DHT22;23928;47.562;7.508;2023-05-08T13:52:28;19.40;99.90
38118;DHT22;23928;47.562;7.508;2023-05-08T13:54:55;19.30;99.90
38118;DHT22;23928;47.562;7.508;2023-05-08T13:57:21;19.40;99.90
38118;DHT22;23928;47.562;7.508;2023-05-08T13:59:47;19.50;99.90
38118;DHT22;23928;47.562;7.508;2023-05-08T14:02:12;19.50;99.90
38118;DHT22;23928;47.562;7.508;2023-05-08T14:04:39;19.50;99.90
38118;DHT22;23928;47.562;7.508;2023-05-08T14:07:04;19.30;99.90
38118;DHT22;23928;47.562;7.508;2023-05-08T14:09:30;19.30;99.90
38118;DHT22;23928;47.562;7.508;2023-05-08T14:11:56;19.30;99.90
38118;DHT22;23928;47.562;7.508;2023-05-08T14:14:21;19.30;99.90
38118;DHT22;23928;47.562;7.508;2023-05-08T14:16:47;19.40;99.90
38118;DHT22;23928;47.562;7.508;2023-05-08T14:19:13;19.40;99.90
38118;DHT22;23928;47.562;7.508;2023-05-08T14:21:39;19.40;99.90
38118;DHT22;23928;47.562;7.508;2023-05-08T14:24:05;19.30;99.90
38118;DHT22;23928;47.562;7.508;2023-05-08T14:26:30;19.60;99.90
38118;DHT22;23928;47.562;7.508;2023-05-08T14:28:56;19.90;99.90
38118;DHT22;23928;47.562;7.508;2023-05-08T14:31:21;19.70;99.90
38118;DHT22;23928;47.562;7.508;2023-05-08T14:33:47;19.60;99.90
38118;DHT22;23928;47.562;7.508;2023-05-08T14:36:12;19.70;99.90
38118;DHT22;23928;47.562;7.508;2023-05-08T14:38:38;19.60;99.90
38118;DHT22;23928;47.562;7.508;2023-05-08T14:41:04;20.20;99.90
38118;DHT22;23928;47.562;7.508;2023-05-08T14:43:29;19.90;99.90
38118;DHT22;23928;47.562;7.508;2023-05-08T14:45:55;20.10;99.90
38118;DHT22;23928;47.562;7.508;2023-05-08T14:48:20;20.50;99.90
38118;DHT22;23928;47.562;7.508;2023-05-08T14:50:46;20.80;99.90
38118;DHT22;23928;47.562;7.508;2023-05-08T14:53:12;21.50;99.90
38118;DHT22;23928;47.562;7.508;2023-05-08T14:55:37;22.10;99.90
38118;DHT22;23928;47.562;7.508;2023-05-08T14:58:03;22.60;99.90
38118;DHT22;23928;47.562;7.508;2023-05-08T15:00:28;21.20;99.90
38118;DHT22;23928;47.562;7.508;2023-05-08T15:02:54;20.70;99.90
38118;DHT22;23928;47.562;7.508;2023-05-08T15:05:19;20.70;99.90
38118;DHT22;23928;47.562;7.508;2023-05-08T15:07:45;20.70;99.90
38118;DHT22;23928;47.562;7.508;2023-05-08T15:10:11;21.30;99.90
38118;DHT22;23928;47.562;7.508;2023-05-08T15:12:36;20.80;99.90
38118;DHT22;23928;47.562;7.508;2023-05-08T15:15:02;21.10;99.90
38118;DHT22;23928;47.562;7.508;2023-05-08T15:17:27;20.60;99.90
38118;DHT22;23928;47.562;7.508;2023-05-08T15:19:53;21.30;99.90
38118;DHT22;23928;47.562;7.508;2023-05-08T15:22:19;21.10;99.90
38118;DHT22;23928;47.562;7.508;2023-05-08T15:24:44;20.70;99.90
38118;DHT22;23928;47.562;7.508;2023-05-08T15:27:10;20.70;99.90
38118;DHT22;23928;47.562;7.508;2023-05-08T15:29:36;20.70;99.90
38118;DHT22;23928;47.562;7.508;2023-05-08T15:32:04;20.50;99.90
38118;DHT22;23928;47.562;7.508;2023-05-08T15:34:30;20.50;99.90
38118;DHT22;23928;47.562;7.508;2023-05-08T15:36:55;20.40;99.90
38118;DHT22;23928;47.562;7.508;2023-05-08T15:39:21;20.70;99.90
38118;DHT22;23928;47.562;7.508;2023-05-08T15:41:46;20.60;99.90
38118;DHT22;23928;47.562;7.508;2023-05-08T15:44:12;20.90;99.90
38118;DHT22;23928;47.562;7.508;2023-05-08T15:46:38;21.10;99.90
38118;DHT22;23928;47.562;7.508;2023-05-08T15:49:04;21.10;99.90
38118;DHT22;23928;47.562;7.508;2023-05-08T15:51:29;21.30;99.90
38118;DHT22;23928;47.562;7.508;2023-05-08T15:53:56;21.70;99.90
38118;DHT22;23928;47.562;7.508;2023-05-08T15:56:22;21.90;99.90
38118;DHT22;23928;47.562;7.508;2023-05-08T15:58:51;21.40;99.90
38118;DHT22;23928;47.562;7.508;2023-05-08T16:01:17;21.60;99.90
38118;DHT22;23928;47.562;7.508;2023-05-08T16:03:43;21.40;99.90
38118;DHT22;23928;47.562;7.508;2023-05-08T16:06:08;21.00;99.90
38118;DHT22;23928;47.562;7.508;2023-05-08T16:08:34;20.90;99.90
38118;DHT22;23928;47.562;7.508;2023-05-08T16:11:00;20.80;99.90
38118;DHT22;23928;47.562;7.508;2023-05-08T16:13:26;21.00;99.90
38118;DHT22;23928;47.562;7.508;2023-05-08T16:15:52;21.40;99.90
38118;DHT22;23928;47.562;7.508;2023-05-08T16:18:17;21.90;99.90
38118;DHT22;23928;47.562;7.508;2023-05-08T16:20:44;22.00;99.90